Portada
METAR-TAF:

METAR-TAF

Aeropuertos :

Aeropuerto Internacional Josefa Camejo

Paraguaná, Venezuela

latitud: 11-47N, longitud: 070-09W, altitud: 23 m

METAR: falta

Hora: 01:12 (05:12 UTC)

Pronóstico

El informe se hizo hace 13 horas y 12 minutos, a las 16:00 UTC
Pronóstico válido del 23 a las 18 UTC al 24 a las 18 UTC
Viento 10 kt del oeste-suroeste
Visibilidad 10 km o más
Cielo nuboso a una altura de 1600 ft
Evolucionando progresivamente
del 23 a las 18 UTC al 23 a las 22 UTC
Viento 13 kt del este
Nubes dispersas a una altura de 1600 ft

TAF: SVJC 231600Z 2318/2418 24010KT 9999 BKN016 TX30/18Z TX24/07Z BECMG 2318/2322 09013KT SCT016

Observaciones y pronósticos meteorológicos de más de 4000 aeropuertos (mensajes METAR y TAF).

Los puntos amarillos y rojos representan las estaciones disponibles.

Ponga el ratón en el punto deseado para ver el nombre de la estación.

Haga clic para ver las observaciones y los pronósticos meteorológicos.

Para cambiar el mapa : haga clic en los botones verdes con una cruz de color negro para hacer un zoom, en el botón verde con un guión para alejar o en las flechas verdes para mapas adyacentes.


METAR-TAF: